Time;durP1;ratioP1;P1;durP2;ratioP2;P2;SDS_P1;SDS_P2;PMS_P1;PMS_P2;Temp;Humidity;BMP_temperature;BMP_pressure;BME280_temperature;BME280_humidity;BME280_pressure;Samples;Min_cycle;Max_cycle;Signal;HPM_P1;HPM_P2
2023/10/10 00:01:41;;;;;;;0.30;0.20;;;15.60;99.90;;;;;;5023342;28;20053;-70
2023/10/10 00:04:06;;;;;;;0.55;0.17;;;15.60;99.90;;;;;;5027816;28;20041;-70
2023/10/10 00:06:38;;;;;;;0.75;0.40;;;15.50;99.90;;;;;;5029036;28;20342;-70
2023/10/10 00:09:05;;;;;;;2.78;0.52;;;15.60;99.90;;;;;;5012311;28;20088;-69
2023/10/10 00:11:31;;;;;;;0.60;0.28;;;15.50;99.90;;;;;;5037652;28;20099;-70
2023/10/10 00:14:06;;;;;;;0.82;0.50;;;15.60;99.90;;;;;;5011691;28;20029;-70
2023/10/10 00:16:37;;;;;;;1.30;0.50;;;15.60;99.90;;;;;;5028870;28;20041;-70
2023/10/10 00:19:12;;;;;;;1.25;0.50;;;15.60;99.90;;;;;;5021325;28;20131;-70
2023/10/10 00:21:40;;;;;;;0.38;0.38;;;15.50;99.90;;;;;;5021798;28;20044;-69
2023/10/10 00:24:10;;;;;;;2.80;0.32;;;15.60;99.90;;;;;;5024871;28;20064;-69
2023/10/10 00:26:37;;;;;;;0.75;0.32;;;15.50;99.90;;;;;;5024163;28;20208;-69
2023/10/10 00:29:06;;;;;;;1.55;0.52;;;15.50;99.90;;;;;;5024753;28;20056;-69
2023/10/10 00:31:31;;;;;;;1.33;0.52;;;15.50;99.90;;;;;;5023566;28;20565;-69
2023/10/10 00:33:57;;;;;;;0.45;0.20;;;15.60;99.90;;;;;;5028679;28;20150;-69
2023/10/10 00:36:36;;;;;;;2.72;0.77;;;15.60;99.90;;;;;;5025663;28;20041;-69
2023/10/10 00:39:22;;;;;;;0.82;0.38;;;15.50;99.90;;;;;;5024103;28;20061;-69
2023/10/10 00:41:53;;;;;;;2.20;0.93;;;15.50;99.90;;;;;;5022349;28;20049;-70
2023/10/10 00:44:19;;;;;;;0.75;0.25;;;15.50;99.90;;;;;;5022593;28;20128;-69
2023/10/10 00:46:51;;;;;;;0.52;0.30;;;15.50;99.90;;;;;;5024784;28;20044;-69
2023/10/10 00:49:25;;;;;;;1.02;0.40;;;15.50;99.90;;;;;;5022568;28;20136;-70
2023/10/10 00:52:02;;;;;;;0.70;0.32;;;15.50;99.90;;;;;;5025404;28;20056;-70
2023/10/10 00:54:31;;;;;;;1.50;0.38;;;15.50;99.90;;;;;;5024751;28;20033;-70
2023/10/10 00:57:00;;;;;;;0.65;0.40;;;15.50;99.90;;;;;;5041590;28;20045;-70
2023/10/10 00:59:42;;;;;;;1.52;0.63;;;15.50;99.90;;;;;;5023615;28;20488;-71
2023/10/10 01:02:10;;;;;;;0.60;0.30;;;15.50;99.90;;;;;;5029111;28;20049;-70
2023/10/10 01:04:48;;;;;;;0.85;0.40;;;15.50;99.90;;;;;;5027408;28;20045;-71
2023/10/10 01:07:18;;;;;;;0.40;0.25;;;15.50;99.90;;;;;;5025218;28;20110;-71
2023/10/10 01:09:56;;;;;;;0.35;0.30;;;15.50;99.90;;;;;;5023029;28;20076;-72
2023/10/10 01:12:28;;;;;;;1.45;0.50;;;15.50;99.90;;;;;;5023049;28;20045;-70
2023/10/10 01:14:55;;;;;;;2.08;0.47;;;15.50;99.90;;;;;;5025387;28;20041;-71
2023/10/10 01:17:29;;;;;;;0.70;0.30;;;15.50;99.90;;;;;;5026136;28;20116;-70
2023/10/10 01:20:45;;;;;;;1.30;0.50;;;15.60;99.90;;;;;;5023587;28;20124;-71
2023/10/10 01:22:57;;;;;;;2.88;0.57;;;15.50;99.90;;;;;;5020182;28;20500;-71
2023/10/10 01:25:41;;;;;;;0.50;0.40;;;15.50;99.90;;;;;;5039524;28;20059;-71
2023/10/10 01:33:23;;;;;;;2.13;0.98;;;15.60;99.90;;;;;;5024059;28;20117;-71
2023/10/10 01:35:50;;;;;;;1.83;1.00;;;15.50;99.90;;;;;;5023795;28;20133;-69
2023/10/10 01:38:55;;;;;;;5.88;0.50;;;15.60;99.90;;;;;;5005911;28;20575;-69
2023/10/10 01:41:48;;;;;;;0.70;0.30;;;15.60;99.90;;;;;;5029465;28;20049;-71
2023/10/10 01:44:18;;;;;;;0.73;0.40;;;15.60;99.90;;;;;;5024907;28;20073;-69
2023/10/10 01:46:44;;;;;;;0.65;0.28;;;15.60;99.90;;;;;;5023835;28;20116;-69
2023/10/10 01:49:14;;;;;;;0.93;0.32;;;15.60;99.90;;;;;;5024629;28;20049;-70
2023/10/10 01:51:43;;;;;;;0.20;0.13;;;15.60;99.90;;;;;;5042111;28;20542;-70
2023/10/10 01:54:18;;;;;;;0.77;0.38;;;15.60;99.90;;;;;;5030603;28;20064;-70
2023/10/10 01:56:45;;;;;;;0.60;0.30;;;15.60;99.90;;;;;;5021229;28;20059;-70
2023/10/10 01:59:17;;;;;;;4.32;0.30;;;15.60;99.90;;;;;;5026505;28;20041;-70
2023/10/10 02:01:43;;;;;;;0.55;0.25;;;15.60;99.90;;;;;;5027483;28;20066;-70
2023/10/10 02:04:10;;;;;;;2.75;0.40;;;15.60;99.90;;;;;;5028126;28;20120;-69
2023/10/10 02:06:39;;;;;;;1.00;0.35;;;15.50;99.90;;;;;;5021754;28;20534;-69
2023/10/10 02:11:56;;;;;;;;;;;15.50;99.90;;;;;;5028567;28;20083;-69
2023/10/10 02:14:30;;;;;;;1.15;0.35;;;15.50;99.90;;;;;;5006028;28;19924;-70
2023/10/10 02:16:59;;;;;;;1.05;0.30;;;15.50;99.90;;;;;;5026677;28;20116;-70
2023/10/10 02:19:32;;;;;;;0.98;0.50;;;15.50;99.90;;;;;;5023531;28;20202;-70
2023/10/10 02:22:47;;;;;;;4.57;0.50;;;15.50;99.90;;;;;;5026573;28;20091;-69
2023/10/10 02:24:51;;;;;;;0.85;0.50;;;15.50;99.90;;;;;;5016802;28;20049;-69
2023/10/10 02:27:22;;;;;;;0.93;0.32;;;15.40;99.90;;;;;;5022525;28;20048;-70
2023/10/10 02:29:49;;;;;;;0.47;0.22;;;15.40;99.90;;;;;;5025834;28;20045;-70
2023/10/10 02:32:21;;;;;;;2.70;0.68;;;15.40;99.90;;;;;;5021320;28;20048;-69
2023/10/10 02:35:00;;;;;;;3.20;0.50;;;15.30;99.90;;;;;;5020775;28;20037;-70
2023/10/10 02:40:42;;;;;;;0.63;0.30;;;15.20;99.90;;;;;;5024742;28;20072;-69
2023/10/10 02:43:09;;;;;;;1.33;0.73;;;15.20;99.90;;;;;;5008488;28;20048;-70
2023/10/10 02:45:35;;;;;;;4.30;0.40;;;15.20;99.90;;;;;;5022015;28;20047;-70
2023/10/10 02:48:07;;;;;;;0.73;0.40;;;15.10;99.90;;;;;;5008077;28;20461;-70
2023/10/10 02:50:40;;;;;;;0.77;0.40;;;15.10;99.90;;;;;;5020906;28;20102;-69
2023/10/10 02:53:09;;;;;;;1.20;0.52;;;15.10;99.90;;;;;;5021413;28;20455;-70
2023/10/10 02:55:40;;;;;;;1.20;0.70;;;15.00;99.90;;;;;;5020833;28;20060;-70
2023/10/10 02:58:21;;;;;;;1.08;0.52;;;15.00;99.90;;;;;;5025588;28;20125;-70
2023/10/10 03:00:52;;;;;;;0.70;0.50;;;14.90;99.90;;;;;;5019741;28;20056;-70
2023/10/10 03:03:18;;;;;;;0.90;0.57;;;14.90;99.90;;;;;;5035663;28;20099;-70
2023/10/10 03:05:55;;;;;;;1.48;0.60;;;14.90;99.90;;;;;;5023125;28;20041;-69
2023/10/10 03:08:34;;;;;;;0.60;0.43;;;14.80;99.90;;;;;;5024807;28;20045;-72
2023/10/10 03:11:01;;;;;;;1.17;0.45;;;14.80;99.90;;;;;;5022170;28;20037;-70
2023/10/10 03:13:47;;;;;;;1.55;0.52;;;14.80;99.90;;;;;;5029228;28;20033;-70
2023/10/10 03:29:20;;;;;;;0.85;0.35;;;14.80;99.90;;;;;;5020315;28;20033;-70
2023/10/10 03:31:55;;;;;;;0.52;0.35;;;14.80;99.90;;;;;;5028720;28;20096;-70
2023/10/10 03:34:31;;;;;;;1.20;0.77;;;14.90;99.90;;;;;;5028827;28;20075;-71
2023/10/10 03:37:21;;;;;;;0.57;0.45;;;14.90;99.90;;;;;;5024133;28;20083;-70
2023/10/10 03:40:09;;;;;;;2.45;0.70;;;14.90;99.90;;;;;;5026261;28;20136;-70
2023/10/10 05:24:24;;;;;;;3.25;1.90;;;15.00;99.90;;;;;;5023255;28;20036;-72
2023/10/10 05:26:49;;;;;;;4.53;2.58;;;14.90;99.90;;;;;;5022390;28;20103;-72
2023/10/10 05:29:19;;;;;;;4.57;2.65;;;14.90;99.90;;;;;;5028808;28;20053;-72
2023/10/10 05:31:46;;;;;;;5.15;2.83;;;14.90;99.90;;;;;;5027588;28;20099;-69
2023/10/10 05:34:14;;;;;;;5.32;2.35;;;14.80;99.90;;;;;;5024574;28;20048;-69
2023/10/10 05:36:41;;;;;;;5.00;3.00;;;14.80;99.90;;;;;;5018743;28;20132;-69
2023/10/10 05:39:11;;;;;;;4.68;2.60;;;14.80;99.90;;;;;;5027358;28;20048;-69
2023/10/10 05:41:40;;;;;;;4.10;2.25;;;14.80;99.90;;;;;;5024655;28;20045;-69
2023/10/10 05:44:08;;;;;;;5.07;1.90;;;14.70;99.90;;;;;;5022583;28;20053;-69
2023/10/10 05:46:34;;;;;;;5.28;2.22;;;14.70;99.90;;;;;;5027814;28;20087;-69
2023/10/10 05:49:01;;;;;;;4.35;2.55;;;14.70;99.90;;;;;;5022857;28;20420;-69
2023/10/10 05:51:51;;;;;;;3.30;2.08;;;14.60;99.90;;;;;;5033384;28;20116;-71
2023/10/10 05:54:17;;;;;;;5.80;2.60;;;14.60;99.90;;;;;;5014721;28;20044;-71
2023/10/10 05:56:46;;;;;;;3.97;2.22;;;14.50;99.90;;;;;;5010235;28;20037;-70
2023/10/10 05:59:12;;;;;;;4.30;1.98;;;14.50;99.90;;;;;;5004690;28;20562;-70
2023/10/10 06:01:38;;;;;;;4.05;2.20;;;14.50;99.90;;;;;;5000095;28;20248;-70
2023/10/10 06:04:05;;;;;;;3.65;2.58;;;14.50;99.90;;;;;;5001856;28;20322;-70
2023/10/10 06:06:31;;;;;;;6.47;2.72;;;14.50;99.90;;;;;;4998660;28;20176;-70
2023/10/10 06:09:00;;;;;;;11.27;3.47;;;14.50;99.90;;;;;;4985519;28;20040;-70
2023/10/10 06:11:27;;;;;;;3.58;2.08;;;14.50;99.90;;;;;;4999462;28;20043;-70
2023/10/10 06:13:53;;;;;;;4.78;2.85;;;14.50;99.90;;;;;;4981180;28;20445;-70
2023/10/10 06:16:20;;;;;;;4.05;2.33;;;14.60;99.90;;;;;;5003200;28;20125;-70
2023/10/10 06:18:47;;;;;;;4.70;3.03;;;14.60;99.90;;;;;;4993939;28;20048;-70
2023/10/10 06:21:16;;;;;;;3.88;2.30;;;14.60;99.90;;;;;;5003864;28;20037;-70
2023/10/10 06:23:44;;;;;;;8.20;2.25;;;14.70;99.90;;;;;;5008422;28;20038;-70
2023/10/10 06:26:10;;;;;;;3.70;2.08;;;14.70;99.90;;;;;;5008948;28;20048;-70
2023/10/10 06:28:35;;;;;;;5.15;2.42;;;14.70;99.90;;;;;;5004707;28;21577;-70
2023/10/10 06:31:03;;;;;;;5.85;2.80;;;14.70;99.90;;;;;;4980873;28;20030;-70
2023/10/10 06:33:28;;;;;;;5.00;3.00;;;14.80;99.90;;;;;;5005749;28;20048;-71
2023/10/10 06:41:43;;;;;;;4.28;2.97;;;15.00;99.90;;;;;;5003835;28;20044;-70
2023/10/10 06:44:13;;;;;;;5.43;3.30;;;15.10;99.90;;;;;;4999910;28;20069;-70
2023/10/10 06:46:42;;;;;;;5.38;3.38;;;15.20;99.90;;;;;;5001150;28;20135;-70
2023/10/10 06:49:11;;;;;;;5.30;3.53;;;15.20;99.90;;;;;;4993677;28;20050;-70
2023/10/10 06:51:41;;;;;;;9.02;3.65;;;15.30;99.90;;;;;;5016141;28;20342;-71
2023/10/10 06:54:27;;;;;;;5.95;3.83;;;15.40;99.90;;;;;;5021645;28;20033;-70
2023/10/10 06:59:27;;;;;;;10.25;4.25;;;15.50;99.90;;;;;;5020596;28;20050;-70
2023/10/10 07:01:53;;;;;;;10.88;4.53;;;15.60;99.90;;;;;;5022936;28;20537;-73
2023/10/10 07:04:19;;;;;;;5.70;3.58;;;15.60;99.90;;;;;;5029565;28;20092;-73
2023/10/10 07:06:47;;;;;;;6.43;3.78;;;15.70;99.90;;;;;;5028873;28;20045;-73
2023/10/10 07:09:28;;;;;;;10.38;3.95;;;15.70;99.90;;;;;;5012136;28;20072;-73
2023/10/10 07:12:09;;;;;;;4.90;2.95;;;15.80;99.90;;;;;;5035720;28;20067;-73
2023/10/10 07:14:45;;;;;;;5.53;3.65;;;15.80;99.90;;;;;;5031147;28;20042;-73
2023/10/10 07:17:15;;;;;;;8.00;3.78;;;15.80;99.90;;;;;;5034901;28;20048;-73
2023/10/10 07:22:28;;;;;;;10.18;4.88;;;15.80;99.90;;;;;;5026374;28;20053;-72
2023/10/10 07:25:06;;;;;;;8.43;5.03;;;15.90;99.90;;;;;;5028801;28;20120;-72
2023/10/10 07:27:41;;;;;;;7.70;4.88;;;15.90;99.90;;;;;;5027169;28;20067;-72
2023/10/10 07:30:18;;;;;;;13.80;5.97;;;15.90;99.90;;;;;;5023216;28;20087;-72
2023/10/10 07:32:50;;;;;;;7.65;4.95;;;16.00;99.90;;;;;;5031101;28;20033;-72
2023/10/10 07:35:17;;;;;;;15.35;5.50;;;16.00;99.90;;;;;;5006921;28;20042;-72
2023/10/10 07:37:44;;;;;;;8.85;5.85;;;16.00;99.90;;;;;;5022746;28;20041;-72
2023/10/10 07:42:39;;;;;;;12.45;6.57;;;16.10;99.90;;;;;;5020258;28;20413;-72
2023/10/10 07:45:13;;;;;;;11.75;6.40;;;16.10;99.90;;;;;;5042595;28;20052;-72
2023/10/10 07:50:56;;;;;;;15.13;6.25;;;16.20;99.90;;;;;;5001256;28;20420;-72
2023/10/10 07:53:31;;;;;;;10.90;5.95;;;16.20;99.90;;;;;;5023270;28;20091;-72
2023/10/10 07:58:36;;;;;;;14.85;6.57;;;16.40;99.90;;;;;;5025545;28;20053;-73
2023/10/10 08:01:11;;;;;;;15.75;6.95;;;16.40;99.90;;;;;;5026275;28;20115;-72
2023/10/10 08:03:37;;;;;;;12.02;5.93;;;16.50;99.90;;;;;;5026043;28;20048;-73
2023/10/10 08:06:08;;;;;;;10.38;6.18;;;16.60;99.90;;;;;;5025414;28;20045;-73
2023/10/10 08:08:35;;;;;;;13.05;6.07;;;16.60;99.90;;;;;;5024685;28;20044;-73
2023/10/10 08:11:05;;;;;;;13.63;6.13;;;16.70;99.90;;;;;;5027067;28;20045;-73
2023/10/10 08:13:32;;;;;;;14.18;6.40;;;16.70;99.90;;;;;;5026004;28;20037;-73
2023/10/10 08:16:02;;;;;;;9.52;5.90;;;16.70;99.90;;;;;;5025075;28;20038;-73
2023/10/10 08:18:49;;;;;;;10.25;7.03;;;16.80;99.90;;;;;;5028545;28;20401;-72
2023/10/10 08:21:15;;;;;;;15.07;8.02;;;16.80;99.90;;;;;;5030726;28;20132;-72
2023/10/10 08:23:42;;;;;;;13.25;7.25;;;16.90;99.90;;;;;;5035848;28;20126;-72
2023/10/10 08:26:10;;;;;;;11.52;6.57;;;17.00;99.90;;;;;;5030041;28;20040;-72
2023/10/10 08:28:36;;;;;;;15.40;7.22;;;17.00;99.90;;;;;;5026239;28;20110;-72
2023/10/10 08:31:02;;;;;;;13.95;6.85;;;17.00;99.90;;;;;;5031426;28;20033;-73
2023/10/10 08:33:32;;;;;;;13.20;6.95;;;17.10;99.90;;;;;;5024604;28;20040;-73
2023/10/10 08:35:58;;;;;;;14.73;7.35;;;17.20;99.90;;;;;;5027218;28;20041;-73
2023/10/10 08:38:24;;;;;;;18.92;7.25;;;17.40;99.90;;;;;;5028843;28;20145;-73
2023/10/10 08:40:58;;;;;;;16.35;6.65;;;17.60;99.90;;;;;;5032118;28;20120;-72
2023/10/10 08:43:28;;;;;;;13.90;7.55;;;17.80;99.90;;;;;;5025433;28;20716;-72
2023/10/10 08:45:57;;;;;;;13.80;7.18;;;18.10;99.90;;;;;;5029547;28;20071;-73
2023/10/10 08:48:26;;;;;;;13.82;7.70;;;18.60;99.90;;;;;;5034621;28;20518;-73
2023/10/10 08:50:55;;;;;;;16.50;7.85;;;18.90;99.90;;;;;;5048408;28;20447;-72
2023/10/10 08:53:24;;;;;;;12.88;6.88;;;19.00;99.90;;;;;;5025448;28;20124;-72
2023/10/10 08:55:56;;;;;;;11.40;7.25;;;19.10;99.90;;;;;;5012418;28;20045;-72
2023/10/10 08:58:22;;;;;;;13.95;7.90;;;19.20;99.90;;;;;;5032322;28;20051;-72
2023/10/10 09:00:49;;;;;;;12.80;6.78;;;19.30;99.90;;;;;;5032546;28;20045;-72
2023/10/10 09:03:15;;;;;;;14.85;7.32;;;19.40;99.90;;;;;;5024937;28;20127;-72
2023/10/10 09:05:41;;;;;;;12.30;6.18;;;19.40;99.90;;;;;;5030623;28;20052;-72
2023/10/10 09:08:16;;;;;;;15.32;6.85;;;19.30;99.90;;;;;;5046659;28;20041;-72
2023/10/10 09:10:47;;;;;;;11.30;6.63;;;19.30;99.90;;;;;;5030426;28;20139;-72
2023/10/10 09:13:13;;;;;;;10.38;6.68;;;19.30;99.90;;;;;;5032108;28;20040;-72
2023/10/10 09:15:54;;;;;;;12.82;7.47;;;19.50;99.90;;;;;;5025728;28;20128;-72
2023/10/10 09:18:25;;;;;;;10.93;6.10;;;19.80;99.90;;;;;;5043577;28;20053;-72
2023/10/10 09:20:53;;;;;;;12.45;6.30;;;20.10;99.90;;;;;;5032866;28;20099;-72
2023/10/10 09:23:32;;;;;;;13.77;7.30;;;20.50;99.90;;;;;;5028994;28;20041;-73
2023/10/10 09:26:29;;;;;;;10.98;5.38;;;20.70;99.90;;;;;;5032085;28;20414;-73
2023/10/10 09:28:58;;;;;;;11.52;6.38;;;20.90;99.90;;;;;;5042114;28;20041;-73
2023/10/10 09:31:32;;;;;;;13.57;6.95;;;21.00;99.90;;;;;;5025264;28;20116;-73
2023/10/10 09:34:02;;;;;;;10.60;5.50;;;21.10;99.90;;;;;;5026792;28;20443;-73
2023/10/10 09:36:28;;;;;;;12.38;6.18;;;21.30;99.90;;;;;;5024456;28;20349;-73
2023/10/10 09:39:25;;;;;;;10.75;5.85;;;21.60;99.90;;;;;;5025498;28;20140;-73
2023/10/10 09:42:06;;;;;;;9.25;5.25;;;21.90;99.90;;;;;;5018695;28;20413;-73
2023/10/10 09:47:43;;;;;;;13.75;5.70;;;22.40;99.90;;;;;;5029032;28;20048;-73
2023/10/10 09:52:58;;;;;;;9.98;5.20;;;23.00;99.90;;;;;;5026467;28;20072;-73
2023/10/10 10:00:52;;;;;;;7.65;4.70;;;23.40;99.90;;;;;;5031526;28;20385;-73
2023/10/10 10:09:38;;;;;;;10.27;5.20;;;23.60;99.90;;;;;;5029264;28;20309;-73
2023/10/10 10:12:08;;;;;;;7.22;4.10;;;23.80;99.90;;;;;;5022702;28;20041;-73
2023/10/10 10:15:04;;;;;;;11.50;5.15;;;23.90;99.90;;;;;;5043231;28;20413;-73
2023/10/10 10:17:47;;;;;;;8.35;4.70;;;23.80;99.90;;;;;;5023901;28;20508;-73
2023/10/10 10:20:44;;;;;;;8.93;4.03;;;24.00;99.90;;;;;;5019158;28;20086;-73
2023/10/10 10:23:26;;;;;;;7.30;4.00;;;24.40;99.90;;;;;;5023988;28;20045;-74
2023/10/10 10:26:10;;;;;;;7.18;3.63;;;24.80;99.90;;;;;;5021430;28;20072;-74
2023/10/10 10:28:40;;;;;;;6.63;3.60;;;24.90;99.90;;;;;;5022682;28;20050;-74
2023/10/10 10:31:07;;;;;;;6.47;3.83;;;25.30;99.90;;;;;;5040358;28;20041;-74
2023/10/10 10:33:36;;;;;;;10.60;3.45;;;25.40;99.90;;;;;;5023733;28;20052;-72
2023/10/10 10:36:06;;;;;;;6.47;3.60;;;25.70;99.90;;;;;;5028720;28;20437;-73
2023/10/10 10:38:39;;;;;;;5.95;2.95;;;25.90;99.90;;;;;;5026526;28;20064;-73
2023/10/10 10:41:07;;;;;;;4.93;3.10;;;26.30;99.90;;;;;;5020289;28;20072;-73
2023/10/10 10:43:42;;;;;;;6.70;2.90;;;26.60;99.90;;;;;;5006920;28;20175;-73
2023/10/10 10:46:27;;;;;;;6.20;2.83;;;26.80;99.90;;;;;;5013931;28;20385;-73
2023/10/10 10:49:05;;;;;;;8.32;2.90;;;27.00;99.90;;;;;;5024503;28;20045;-73
2023/10/10 10:51:47;;;;;;;5.45;3.08;;;27.40;99.90;;;;;;5024989;28;20075;-73
2023/10/10 10:54:35;;;;;;;4.35;2.40;;;27.50;99.90;;;;;;5009393;28;20057;-73
2023/10/10 10:57:04;;;;;;;5.63;2.50;;;27.70;99.90;;;;;;5025715;28;20428;-73
2023/10/10 10:59:38;;;;;;;7.15;3.13;;;27.70;99.90;;;;;;5026238;28;20037;-73
2023/10/10 11:02:15;;;;;;;4.60;2.40;;;27.90;99.90;;;;;;5014142;28;20120;-73
2023/10/10 11:04:49;;;;;;;8.15;3.38;;;28.20;99.90;;;;;;5024885;28;20045;-73
2023/10/10 11:07:26;;;;;;;4.10;2.13;;;28.20;99.90;;;;;;5022404;28;20029;-74
2023/10/10 11:09:52;;;;;;;6.28;2.60;;;27.80;99.90;;;;;;5025526;28;20045;-73
2023/10/10 11:12:22;;;;;;;8.23;2.80;;;27.20;99.90;;;;;;5022366;28;20033;-73
2023/10/10 11:14:49;;;;;;;5.00;2.25;;;26.70;99.90;;;;;;5023461;28;20043;-73
2023/10/10 11:17:18;;;;;;;5.82;2.45;;;26.00;99.90;;;;;;5021877;28;20040;-73
2023/10/10 11:19:53;;;;;;;7.18;2.72;;;25.30;99.90;;;;;;5039928;28;20044;-73
2023/10/10 11:22:39;;;;;;;4.72;2.58;;;25.10;99.90;;;;;;5036430;28;20116;-73
2023/10/10 11:25:06;;;;;;;5.85;2.58;;;25.50;99.90;;;;;;5011319;28;20037;-73
2023/10/10 11:27:43;;;;;;;6.15;2.72;;;26.30;99.90;;;;;;5025712;28;20040;-73
2023/10/10 11:30:24;;;;;;;4.97;2.10;;;27.10;99.90;;;;;;5027968;28;20436;-73
2023/10/10 11:32:52;;;;;;;5.60;3.15;;;27.90;99.90;;;;;;5023808;28;20040;-73
2023/10/10 11:35:26;;;;;;;5.35;2.95;;;28.40;99.90;;;;;;5022031;28;20099;-73
2023/10/10 11:38:10;;;;;;;8.60;2.85;;;28.90;99.90;;;;;;5024020;28;20061;-73
2023/10/10 11:40:36;;;;;;;5.32;3.05;;;29.20;99.90;;;;;;5026074;28;20928;-73
2023/10/10 11:43:11;;;;;;;4.65;2.63;;;29.10;99.90;;;;;;5013360;28;20085;-73
2023/10/10 11:45:50;;;;;;;7.07;2.58;;;29.20;99.90;;;;;;5016260;28;20087;-73
2023/10/10 11:48:17;;;;;;;5.68;2.72;;;29.40;99.90;;;;;;5019366;28;20109;-73
2023/10/10 11:50:51;;;;;;;4.32;2.45;;;29.20;99.90;;;;;;5016731;28;20099;-73
2023/10/10 11:53:27;;;;;;;8.00;2.45;;;28.70;99.90;;;;;;5021580;28;20532;-73
2023/10/10 11:56:07;;;;;;;6.50;2.63;;;27.80;99.90;;;;;;5046635;28;20472;-72
2023/10/10 11:58:45;;;;;;;6.38;2.70;;;26.90;99.90;;;;;;5045891;28;20126;-72
2023/10/10 12:01:17;;;;;;;4.47;2.25;;;26.10;99.90;;;;;;5025268;28;20052;-73
2023/10/10 12:03:42;;;;;;;5.72;2.10;;;25.60;99.90;;;;;;5024898;28;20056;-73
2023/10/10 12:06:19;;;;;;;3.47;1.85;;;25.10;99.90;;;;;;5020026;28;20045;-73
2023/10/10 12:08:50;;;;;;;5.57;2.25;;;24.80;99.90;;;;;;5028438;28;20373;-73
2023/10/10 12:11:19;;;;;;;3.63;1.70;;;24.60;99.90;;;;;;5026251;28;20037;-73
2023/10/10 12:13:54;;;;;;;4.75;1.77;;;24.60;99.90;;;;;;5037138;28;20503;-73
2023/10/10 12:16:23;;;;;;;4.60;1.83;;;24.60;99.90;;;;;;5021397;28;20143;-73
2023/10/10 12:18:59;;;;;;;4.93;2.08;;;24.40;99.90;;;;;;5043822;28;20132;-73
2023/10/10 12:21:25;;;;;;;5.72;2.42;;;24.30;99.90;;;;;;5004224;28;20048;-73
2023/10/10 12:24:01;;;;;;;4.65;2.38;;;24.20;99.90;;;;;;5026263;28;20045;-73
2023/10/10 12:26:27;;;;;;;4.28;1.90;;;24.80;99.90;;;;;;5025702;28;20120;-73
2023/10/10 12:28:52;;;;;;;3.17;1.92;;;25.80;99.90;;;;;;5026670;28;20049;-74
2023/10/10 12:31:22;;;;;;;5.15;2.15;;;26.50;99.90;;;;;;5027862;28;20045;-74
2023/10/10 12:33:49;;;;;;;6.13;2.40;;;26.30;99.90;;;;;;5009922;28;20045;-73
2023/10/10 12:36:22;;;;;;;2.83;1.77;;;25.80;99.90;;;;;;5027620;28;20028;-73
2023/10/10 12:38:48;;;;;;;4.35;2.20;;;25.30;99.90;;;;;;5026735;28;20052;-73
2023/10/10 12:41:20;;;;;;;4.60;2.63;;;24.80;99.90;;;;;;5025267;28;20046;-73
2023/10/10 12:43:46;;;;;;;5.10;2.13;;;24.30;99.90;;;;;;5026557;28;20132;-73
2023/10/10 12:46:16;;;;;;;4.47;1.98;;;23.80;99.90;;;;;;5029459;28;20430;-73
2023/10/10 12:48:43;;;;;;;3.17;1.98;;;23.40;99.90;;;;;;5026663;28;20037;-73
2023/10/10 12:51:09;;;;;;;6.47;2.03;;;23.10;99.90;;;;;;5040665;28;20152;-73
2023/10/10 12:53:39;;;;;;;6.93;2.33;;;22.80;99.90;;;;;;5013858;28;20108;-73
2023/10/10 12:56:10;;;;;;;5.00;2.20;;;22.60;99.90;;;;;;5025271;28;20084;-73
2023/10/10 12:58:42;;;;;;;4.85;2.75;;;22.30;99.90;;;;;;5026636;28;20374;-73
2023/10/10 13:01:12;;;;;;;3.90;2.60;;;22.10;99.90;;;;;;5030184;28;20047;-72
2023/10/10 13:03:38;;;;;;;4.45;2.75;;;21.90;99.90;;;;;;5039339;28;20060;-72
2023/10/10 13:06:06;;;;;;;7.50;2.75;;;21.80;99.90;;;;;;5025395;28;20037;-72
2023/10/10 13:08:38;;;;;;;5.00;2.22;;;21.60;99.90;;;;;;5041602;28;20076;-72
2023/10/10 13:11:12;;;;;;;5.57;2.22;;;21.50;99.90;;;;;;5021847;28;20392;-72
2023/10/10 13:13:45;;;;;;;7.22;2.47;;;21.40;99.90;;;;;;5019876;28;20041;-73
2023/10/10 13:16:52;;;;;;;3.50;1.95;;;21.40;99.90;;;;;;5012088;28;20452;-73
2023/10/10 13:19:20;;;;;;;4.85;2.15;;;21.30;99.90;;;;;;5022481;28;20049;-73
2023/10/10 13:21:47;;;;;;;8.20;2.88;;;21.20;99.90;;;;;;5011646;28;20080;-73
2023/10/10 13:24:18;;;;;;;4.05;2.28;;;21.20;99.90;;;;;;5024880;28;20038;-73
2023/10/10 13:26:49;;;;;;;4.35;2.03;;;21.10;99.90;;;;;;5014182;28;20045;-78
2023/10/10 13:29:16;;;;;;;4.53;2.05;;;21.10;99.90;;;;;;5012349;28;20124;-79
2023/10/10 13:31:44;;;;;;;4.32;2.47;;;21.10;99.90;;;;;;5010639;28;20156;-78
2023/10/10 13:34:11;;;;;;;3.78;1.90;;;21.10;99.90;;;;;;5026421;28;20057;-74
2023/10/10 13:36:37;;;;;;;4.20;2.13;;;21.10;99.90;;;;;;5024773;28;20041;-78
2023/10/10 13:39:07;;;;;;;5.03;2.40;;;21.10;99.90;;;;;;5025527;28;20381;-76
2023/10/10 13:41:36;;;;;;;5.50;2.28;;;21.20;99.90;;;;;;5024251;28;20512;-77
2023/10/10 13:44:03;;;;;;;5.45;3.20;;;21.30;99.90;;;;;;5011474;28;20048;-80
2023/10/10 13:46:35;;;;;;;7.25;2.53;;;21.40;99.90;;;;;;5020770;28;20037;-78
2023/10/10 13:49:08;;;;;;;4.40;2.40;;;21.50;99.90;;;;;;5014804;28;20029;-78
2023/10/10 13:51:40;;;;;;;4.65;2.55;;;21.50;99.90;;;;;;5014813;28;20056;-79
2023/10/10 13:54:06;;;;;;;5.93;2.40;;;21.50;99.90;;;;;;5007789;28;20037;-79
2023/10/10 13:56:32;;;;;;;5.07;2.55;;;21.50;99.90;;;;;;5014159;28;20493;-78
2023/10/10 13:59:00;;;;;;;3.60;2.20;;;21.50;99.90;;;;;;5022521;28;20041;-79
2023/10/10 14:04:15;;;;;;;6.57;2.55;;;21.40;99.90;;;;;;5023758;28;20454;-77
2023/10/10 14:06:47;;;;;;;6.18;2.75;;;21.40;99.90;;;;;;5027021;28;20048;-77
2023/10/10 14:09:22;;;;;;;6.10;2.38;;;21.20;99.90;;;;;;5023720;28;20048;-77
2023/10/10 14:11:50;;;;;;;5.35;2.58;;;21.20;99.90;;;;;;5028792;28;20072;-78
2023/10/10 14:14:15;;;;;;;5.30;2.63;;;21.10;99.90;;;;;;5028526;28;20041;-77
2023/10/10 14:16:41;;;;;;;5.03;2.88;;;21.10;99.90;;;;;;5024551;28;20037;-77
2023/10/10 14:19:08;;;;;;;5.53;2.60;;;21.00;99.90;;;;;;5007463;28;20068;-77
2023/10/10 14:21:38;;;;;;;6.00;2.92;;;21.00;99.90;;;;;;5013203;28;20396;-77
2023/10/10 14:24:04;;;;;;;7.05;2.80;;;21.00;99.90;;;;;;5023026;28;20041;-78
2023/10/10 14:26:33;;;;;;;5.40;2.53;;;20.90;99.90;;;;;;5020472;28;20068;-78
2023/10/10 14:29:06;;;;;;;3.40;2.15;;;20.90;99.90;;;;;;5021713;28;20498;-78
2023/10/10 14:31:43;;;;;;;8.90;2.42;;;20.90;99.90;;;;;;5023419;28;20037;-78
2023/10/10 14:34:15;;;;;;;7.45;3.05;;;20.90;99.90;;;;;;5009243;28;20029;-78
2023/10/10 14:36:41;;;;;;;4.85;1.95;;;20.90;99.90;;;;;;5025542;28;20088;-78
2023/10/10 14:39:28;;;;;;;4.00;2.22;;;20.90;99.90;;;;;;5006414;28;20493;-75
2023/10/10 14:41:57;;;;;;;5.63;2.17;;;20.90;99.90;;;;;;5039969;28;20045;-74
2023/10/10 14:44:24;;;;;;;7.68;2.85;;;21.00;99.90;;;;;;5023124;28;20280;-80
2023/10/10 14:46:51;;;;;;;4.00;2.30;;;20.90;99.90;;;;;;5026107;28;20076;-80
2023/10/10 14:49:17;;;;;;;6.50;2.53;;;20.90;99.90;;;;;;5026915;28;20037;-79
2023/10/10 14:51:53;;;;;;;5.00;2.75;;;20.90;99.90;;;;;;5024347;28;20053;-79
2023/10/10 14:54:19;;;;;;;5.25;2.50;;;20.80;99.90;;;;;;5024922;28;20499;-80
2023/10/10 14:56:51;;;;;;;4.70;2.53;;;20.80;99.90;;;;;;5019885;28;20049;-81
2023/10/10 14:59:20;;;;;;;3.75;1.70;;;20.80;99.90;;;;;;5024939;28;20041;-80
2023/10/10 15:01:50;;;;;;;7.43;2.65;;;20.70;99.90;;;;;;5007988;28;20036;-80
2023/10/10 15:04:17;;;;;;;5.38;2.53;;;20.70;99.90;;;;;;5023433;28;20049;-81
2023/10/10 15:06:44;;;;;;;7.72;3.22;;;20.70;99.90;;;;;;5022610;28;20041;-81
2023/10/10 15:09:14;;;;;;;4.88;2.30;;;20.60;99.90;;;;;;5009303;28;20045;-80
2023/10/10 15:11:45;;;;;;;6.07;2.38;;;20.60;99.90;;;;;;5024399;28;20076;-81
2023/10/10 15:14:11;;;;;;;5.60;1.98;;;20.60;99.90;;;;;;5010213;28;20037;-81
2023/10/10 15:16:38;;;;;;;4.65;1.88;;;20.50;99.90;;;;;;5025894;28;20064;-81
2023/10/10 15:19:08;;;;;;;2.97;1.65;;;20.40;99.90;;;;;;5011881;28;20037;-81
2023/10/10 15:21:39;;;;;;;5.97;2.63;;;20.40;99.90;;;;;;5025764;28;20520;-80
2023/10/10 15:24:12;;;;;;;4.40;2.33;;;20.30;99.90;;;;;;5025635;28;20036;-80
2023/10/10 15:26:39;;;;;;;5.90;1.98;;;20.20;99.90;;;;;;5014162;28;20762;-80
2023/10/10 15:29:05;;;;;;;7.22;1.65;;;20.20;99.90;;;;;;5020721;28;20041;-80
2023/10/10 15:31:31;;;;;;;3.50;1.92;;;20.20;99.90;;;;;;5027474;28;20102;-80
2023/10/10 15:33:58;;;;;;;7.70;1.98;;;20.10;99.90;;;;;;5019033;28;20036;-81
2023/10/10 15:36:30;;;;;;;3.92;1.67;;;20.10;99.90;;;;;;5016795;28;20041;-80
2023/10/10 15:39:07;;;;;;;6.10;1.77;;;20.10;99.90;;;;;;5028691;28;20043;-80
2023/10/10 15:41:34;;;;;;;8.77;2.08;;;20.00;99.90;;;;;;5027143;28;20101;-82
2023/10/10 15:44:02;;;;;;;6.38;2.13;;;19.90;99.90;;;;;;5030282;28;20033;-82
2023/10/10 15:46:33;;;;;;;3.60;1.65;;;19.90;99.90;;;;;;5016680;28;20505;-82
2023/10/10 15:49:01;;;;;;;4.78;2.65;;;19.90;99.90;;;;;;5029013;28;20366;-83
2023/10/10 15:51:29;;;;;;;2.80;1.80;;;19.80;99.90;;;;;;5015878;28;20467;-80
2023/10/10 15:53:56;;;;;;;3.58;1.92;;;19.70;99.90;;;;;;5025438;28;20033;-80